Time;durP1;ratioP1;P1;durP2;ratioP2;P2;SDS_P1;SDS_P2;PMS_P1;PMS_P2;Temp;Humidity;BMP_temperature;BMP_pressure;BME280_temperature;BME280_humidity;BME280_pressure;Samples;Min_cycle;Max_cycle;Signal;HPM_P1;HPM_P2
2022/08/14 00:02:54;;;;;;;2.05;1.70;;;;;;;;;;8374674;28;20036;-57
2022/08/14 00:06:55;;;;;;;3.13;1.70;;;;;;;;;;8375187;28;20040;-57
2022/08/14 00:10:55;;;;;;;2.13;1.90;;;;;;;;;;8367290;28;20055;-57
2022/08/14 00:14:55;;;;;;;2.15;1.95;;;;;;;;;;8371374;28;20036;-57
2022/08/14 00:18:55;;;;;;;2.53;1.70;;;;;;;;;;8372398;28;21631;-56
2022/08/14 00:22:56;;;;;;;2.00;1.83;;;;;;;;;;8372778;28;20035;-57
2022/08/14 00:26:57;;;;;;;2.47;1.75;;;;;;;;;;8373771;28;20016;-57
2022/08/14 00:30:58;;;;;;;3.15;2.00;;;;;;;;;;8374676;28;20086;-57
2022/08/14 00:35:00;;;;;;;2.53;1.98;;;;;;;;;;8372461;28;20587;-57
2022/08/14 00:39:00;;;;;;;3.55;1.80;;;;;;;;;;8373441;28;20560;-57
2022/08/14 00:43:00;;;;;;;2.30;2.10;;;;;;;;;;8373094;28;20024;-57
2022/08/14 00:47:02;;;;;;;3.40;2.00;;;;;;;;;;8370941;28;20389;-57
2022/08/14 00:51:07;;;;;;;2.35;2.10;;;;;;;;;;8372546;28;20021;-57
2022/08/14 00:55:08;;;;;;;3.03;2.20;;;;;;;;;;8371992;28;20479;-57
2022/08/14 00:59:10;;;;;;;4.10;2.00;;;;;;;;;;8372326;28;20412;-57
2022/08/14 01:03:10;;;;;;;2.13;1.90;;;;;;;;;;8371885;28;20047;-57
2022/08/14 01:07:11;;;;;;;3.72;2.40;;;;;;;;;;8368978;28;20651;-57
2022/08/14 01:11:14;;;;;;;7.03;2.95;;;;;;;;;;8364533;28;20021;-57
2022/08/14 01:15:15;;;;;;;;;;;;;;;;;;8361479;28;20032;-56
2022/08/14 01:23:37;;;;;;;7.35;6.15;;;;;;;;;;8368909;28;20131;-57
2022/08/14 01:27:38;;;;;;;8.43;6.40;;;;;;;;;;8371233;28;20024;-56
2022/08/14 01:31:49;;;;;;;11.02;6.43;;;;;;;;;;8370484;28;20067;-57
2022/08/14 01:35:49;;;;;;;10.95;6.72;;;;;;;;;;8372824;28;20334;-57
2022/08/14 01:39:50;;;;;;;10.18;7.40;;;;;;;;;;8370419;28;20020;-57
2022/08/14 01:43:50;;;;;;;12.15;7.55;;;;;;;;;;8366531;28;20036;-57
2022/08/14 01:47:50;;;;;;;11.43;8.07;;;;;;;;;;8383745;28;20059;-57
2022/08/14 01:51:55;;;;;;;11.90;8.10;;;;;;;;;;8374214;28;20267;-57
2022/08/14 01:55:56;;;;;;;11.32;8.43;;;;;;;;;;8372650;28;20484;-57
2022/08/14 01:59:56;;;;;;;9.45;7.68;;;;;;;;;;8371361;28;20017;-59
2022/08/14 02:03:57;;;;;;;14.55;7.40;;;;;;;;;;8370605;28;20040;-57
2022/08/14 02:07:57;;;;;;;9.90;8.10;;;;;;;;;;8369323;28;20016;-57
2022/08/14 02:11:57;;;;;;;11.45;7.63;;;;;;;;;;8367614;28;20078;-57
2022/08/14 02:15:59;;;;;;;13.30;9.30;;;;;;;;;;8365950;28;20161;-57
2022/08/14 02:19:59;;;;;;;11.98;8.80;;;;;;;;;;8359396;28;20151;-56
2022/08/14 02:24:01;;;;;;;13.38;9.07;;;;;;;;;;8366801;28;20536;-57
2022/08/14 02:28:01;;;;;;;12.98;8.57;;;;;;;;;;8367532;28;20029;-57
2022/08/14 02:32:01;;;;;;;11.00;7.88;;;;;;;;;;8366714;28;20489;-57
2022/08/14 02:36:02;;;;;;;11.23;8.20;;;;;;;;;;8367197;28;20995;-56
2022/08/14 02:40:03;;;;;;;10.05;8.73;;;;;;;;;;8367099;28;20036;-57
2022/08/14 02:44:04;;;;;;;12.90;7.45;;;;;;;;;;8364857;28;20520;-57
2022/08/14 02:48:06;;;;;;;10.82;8.30;;;;;;;;;;8365591;28;20059;-57
2022/08/14 02:52:07;;;;;;;8.90;7.13;;;;;;;;;;8364616;28;20090;-57
2022/08/14 02:56:09;;;;;;;10.63;7.93;;;;;;;;;;8365346;28;20020;-56
2022/08/14 03:00:11;;;;;;;11.13;7.55;;;;;;;;;;8363777;28;20020;-57
2022/08/14 03:04:12;;;;;;;14.97;7.87;;;;;;;;;;8366153;28;20055;-57
2022/08/14 03:08:13;;;;;;;13.05;7.55;;;;;;;;;;8366652;28;20025;-57
2022/08/14 03:12:13;;;;;;;11.13;7.85;;;;;;;;;;8364209;28;20067;-56
2022/08/14 03:16:14;;;;;;;10.60;7.55;;;;;;;;;;8368818;28;20091;-57
2022/08/14 03:20:15;;;;;;;11.10;7.97;;;;;;;;;;8372130;28;20436;-56
2022/08/14 03:24:15;;;;;;;8.50;7.40;;;;;;;;;;8373281;28;20021;-57
2022/08/14 03:28:15;;;;;;;14.18;7.57;;;;;;;;;;8369150;28;20020;-57
2022/08/14 03:32:15;;;;;;;10.82;7.57;;;;;;;;;;8369095;28;20032;-57
2022/08/14 03:36:18;;;;;;;9.48;7.88;;;;;;;;;;8371729;28;20028;-57
2022/08/14 03:40:19;;;;;;;10.57;7.63;;;;;;;;;;8371619;28;20320;-58
2022/08/14 03:44:19;;;;;;;10.73;8.23;;;;;;;;;;8368853;28;20043;-56
2022/08/14 03:48:20;;;;;;;12.30;9.13;;;;;;;;;;8371407;28;20032;-56
2022/08/14 03:52:20;;;;;;;9.85;8.35;;;;;;;;;;8371292;28;20028;-56
2022/08/14 03:56:20;;;;;;;11.32;9.18;;;;;;;;;;8366809;28;20115;-57
2022/08/14 04:00:20;;;;;;;14.90;8.50;;;;;;;;;;8367306;28;20032;-57
2022/08/14 04:04:22;;;;;;;9.85;7.97;;;;;;;;;;8370143;28;20464;-56
2022/08/14 04:08:22;;;;;;;12.35;8.68;;;;;;;;;;8371940;28;20016;-57
2022/08/14 04:12:22;;;;;;;11.98;9.02;;;;;;;;;;8369142;28;20048;-56
2022/08/14 04:16:22;;;;;;;14.05;10.23;;;;;;;;;;8368601;28;20163;-57
2022/08/14 04:20:23;;;;;;;14.55;9.57;;;;;;;;;;8366885;28;20696;-57
2022/08/14 04:24:23;;;;;;;10.73;9.20;;;;;;;;;;8368859;28;20048;-57
2022/08/14 04:28:25;;;;;;;12.63;9.30;;;;;;;;;;8367204;28;20797;-57
2022/08/14 04:32:25;;;;;;;12.60;8.98;;;;;;;;;;8366621;28;20149;-56
2022/08/14 04:36:25;;;;;;;10.03;8.20;;;;;;;;;;8368624;28;20028;-57
2022/08/14 04:44:44;;;;;;;14.60;9.00;;;;;;;;;;8369461;28;20109;-59
2022/08/14 04:48:44;;;;;;;9.27;7.90;;;;;;;;;;8368499;28;20037;-57
2022/08/14 04:52:48;;;;;;;10.20;8.17;;;;;;;;;;8367015;28;20032;-57
2022/08/14 04:56:48;;;;;;;10.93;7.53;;;;;;;;;;8367974;28;20255;-57
2022/08/14 05:00:49;;;;;;;7.38;6.63;;;;;;;;;;8367905;28;20104;-57
2022/08/14 05:04:49;;;;;;;9.30;7.28;;;;;;;;;;8369417;28;20101;-56
2022/08/14 05:08:50;;;;;;;7.67;6.87;;;;;;;;;;8369436;28;20029;-57
2022/08/14 05:12:51;;;;;;;8.40;6.90;;;;;;;;;;8363837;28;20032;-57
2022/08/14 05:16:51;;;;;;;13.13;6.72;;;;;;;;;;8370196;28;20580;-58
2022/08/14 05:20:53;;;;;;;8.23;6.53;;;;;;;;;;8368605;28;21007;-57
2022/08/14 05:24:53;;;;;;;7.93;6.38;;;;;;;;;;8367832;28;20070;-57
2022/08/14 05:28:53;;;;;;;7.28;5.82;;;;;;;;;;8366585;28;20029;-57
2022/08/14 05:32:54;;;;;;;8.83;6.13;;;;;;;;;;8367160;28;20044;-57
2022/08/14 05:36:56;;;;;;;11.48;6.82;;;;;;;;;;8368752;28;20031;-59
2022/08/14 05:40:57;;;;;;;10.18;7.35;;;;;;;;;;8366032;28;20120;-57
2022/08/14 05:44:57;;;;;;;7.93;6.47;;;;;;;;;;8364499;28;20028;-57
2022/08/14 05:48:58;;;;;;;7.53;6.10;;;;;;;;;;8366417;28;20661;-57
2022/08/14 05:52:58;;;;;;;8.27;6.85;;;;;;;;;;8367342;28;20580;-57
2022/08/14 05:56:58;;;;;;;8.55;6.65;;;;;;;;;;8367975;28;20030;-57
2022/08/14 06:00:59;;;;;;;7.28;6.50;;;;;;;;;;8370931;28;20040;-57
2022/08/14 06:05:01;;;;;;;9.25;6.47;;;;;;;;;;8374279;28;20028;-57
2022/08/14 06:09:01;;;;;;;7.32;6.40;;;;;;;;;;8380407;28;20438;-57
2022/08/14 06:13:02;;;;;;;7.60;6.87;;;;;;;;;;8384121;28;20184;-57
2022/08/14 06:17:02;;;;;;;8.02;6.88;;;;;;;;;;8386862;28;21174;-57
2022/08/14 06:21:04;;;;;;;7.75;6.60;;;;;;;;;;8387512;28;20477;-56
2022/08/14 06:25:04;;;;;;;8.75;6.80;;;;;;;;;;8393797;28;20119;-57
2022/08/14 06:29:04;;;;;;;8.18;6.90;;;;;;;;;;8391982;28;20021;-57
2022/08/14 06:33:05;;;;;;;10.43;6.87;;;;;;;;;;8395353;28;20033;-57
2022/08/14 06:37:06;;;;;;;8.13;7.32;;;;;;;;;;8389172;28;20016;-57
2022/08/14 06:41:06;;;;;;;8.25;6.93;;;;;;;;;;8392611;28;20021;-57
2022/08/14 06:45:07;;;;;;;8.32;7.32;;;;;;;;;;8384201;28;20020;-58
2022/08/14 06:49:07;;;;;;;10.57;7.78;;;;;;;;;;8374083;28;20031;-57
2022/08/14 06:53:08;;;;;;;9.60;6.70;;;;;;;;;;8375277;28;20047;-58
2022/08/14 06:57:08;;;;;;;8.40;6.55;;;;;;;;;;8370686;28;20143;-58
2022/08/14 07:05:48;;;;;;;8.63;6.20;;;;;;;;;;8297625;28;20876;-58
2022/08/14 07:09:48;;;;;;;7.05;6.35;;;;;;;;;;8372382;28;20039;-58
2022/08/14 07:13:48;;;;;;;6.95;5.88;;;;;;;;;;8369915;28;20936;-58
2022/08/14 07:17:49;;;;;;;8.88;5.72;;;;;;;;;;8369745;28;20040;-57
2022/08/14 07:21:49;;;;;;;6.97;5.68;;;;;;;;;;8369527;28;20021;-58
2022/08/14 07:25:50;;;;;;;6.32;5.72;;;;;;;;;;8372964;28;20024;-58
2022/08/14 07:29:52;;;;;;;6.65;5.97;;;;;;;;;;8372921;28;20520;-58
2022/08/14 07:33:52;;;;;;;5.63;5.23;;;;;;;;;;8369300;28;20090;-58
2022/08/14 07:37:52;;;;;;;6.55;5.93;;;;;;;;;;8372894;28;20032;-60
2022/08/14 07:41:52;;;;;;;7.57;4.90;;;;;;;;;;8372464;28;21067;-57
2022/08/14 07:45:52;;;;;;;10.85;6.00;;;;;;;;;;8371780;28;20037;-58
2022/08/14 07:50:13;;;;;;;5.30;4.80;;;;;;;;;;8369772;28;20029;-58
2022/08/14 07:54:15;;;;;;;6.55;4.53;;;;;;;;;;8372957;28;20652;-58
2022/08/14 07:58:16;;;;;;;4.82;4.40;;;;;;;;;;8376886;28;20048;-58
2022/08/14 08:02:16;;;;;;;6.88;5.00;;;;;;;;;;8376340;28;20047;-58
2022/08/14 08:06:16;;;;;;;4.50;4.10;;;;;;;;;;8374068;28;20020;-58
2022/08/14 08:10:30;;;;;;;5.37;4.10;;;;;;;;;;8371691;28;20493;-58
2022/08/14 08:14:32;;;;;;;4.80;4.03;;;;;;;;;;8370581;28;20028;-60
2022/08/14 08:18:32;;;;;;;4.78;3.88;;;;;;;;;;8368223;28;20048;-58
2022/08/14 08:22:34;;;;;;;4.83;4.00;;;;;;;;;;8376036;28;20058;-58
2022/08/14 08:26:34;;;;;;;7.75;3.90;;;;;;;;;;8378090;28;20050;-60
2022/08/14 08:30:39;;;;;;;4.95;3.85;;;;;;;;;;8382239;28;20033;-58
2022/08/14 08:34:44;;;;;;;6.85;4.05;;;;;;;;;;8378910;28;20063;-58
2022/08/14 08:38:47;;;;;;;5.15;4.65;;;;;;;;;;8387543;28;20052;-58
2022/08/14 08:42:47;;;;;;;4.10;3.80;;;;;;;;;;8383654;28;20089;-58
2022/08/14 08:46:55;;;;;;;4.10;3.70;;;;;;;;;;8387977;28;20510;-59
2022/08/14 08:50:57;;;;;;;5.20;4.43;;;;;;;;;;8390120;28;20020;-58
2022/08/14 08:55:03;;;;;;;4.70;4.22;;;;;;;;;;8389023;28;20047;-60
2022/08/14 08:59:14;;;;;;;6.72;4.45;;;;;;;;;;8389475;28;20017;-58
2022/08/14 09:03:19;;;;;;;5.10;4.55;;;;;;;;;;8387642;28;20032;-58
2022/08/14 09:07:28;;;;;;;7.22;4.35;;;;;;;;;;8388575;28;20103;-58
2022/08/14 09:11:28;;;;;;;8.20;4.10;;;;;;;;;;8389362;28;20017;-59
2022/08/14 09:15:28;;;;;;;3.75;3.42;;;;;;;;;;8390167;28;20127;-58
2022/08/14 09:19:29;;;;;;;3.67;3.37;;;;;;;;;;8388234;28;20055;-58
2022/08/14 09:23:30;;;;;;;3.88;3.45;;;;;;;;;;8388106;28;20036;-59
2022/08/14 09:27:30;;;;;;;5.07;3.20;;;;;;;;;;8382343;28;20537;-59
2022/08/14 09:31:32;;;;;;;5.20;3.83;;;;;;;;;;8386996;28;20033;-59
2022/08/14 09:35:44;;;;;;;5.32;3.83;;;;;;;;;;8391638;28;20040;-58
2022/08/14 09:39:53;;;;;;;3.83;3.53;;;;;;;;;;8393208;28;20033;-59
2022/08/14 09:43:58;;;;;;;3.90;3.42;;;;;;;;;;8390956;28;20028;-58
2022/08/14 09:47:59;;;;;;;4.82;3.97;;;;;;;;;;8389204;28;20104;-59
2022/08/14 09:52:09;;;;;;;4.50;3.50;;;;;;;;;;8390824;28;20524;-58
2022/08/14 09:56:11;;;;;;;4.50;4.10;;;;;;;;;;8393837;28;20017;-58
2022/08/14 10:00:13;;;;;;;5.20;3.95;;;;;;;;;;8395626;28;20042;-60
2022/08/14 10:04:22;;;;;;;6.35;2.95;;;;;;;;;;8398034;28;20044;-59
2022/08/14 10:08:22;;;;;;;4.05;3.00;;;;;;;;;;8395457;28;20032;-58
2022/08/14 10:12:23;;;;;;;3.65;3.08;;;;;;;;;;8396378;28;20538;-58
2022/08/14 10:16:28;;;;;;;4.97;3.10;;;;;;;;;;8397018;28;20507;-58
2022/08/14 10:20:40;;;;;;;3.55;3.20;;;;;;;;;;8391543;28;20028;-58
2022/08/14 10:24:43;;;;;;;3.85;2.95;;;;;;;;;;8395395;28;20075;-58
2022/08/14 10:28:45;;;;;;;3.30;2.75;;;;;;;;;;8394914;28;20020;-59
2022/08/14 10:32:47;;;;;;;2.83;2.20;;;;;;;;;;8395104;28;20413;-58
2022/08/14 10:36:47;;;;;;;3.58;2.00;;;;;;;;;;8397627;28;20555;-58
2022/08/14 10:40:47;;;;;;;3.70;2.20;;;;;;;;;;8395062;28;20396;-58
2022/08/14 10:44:49;;;;;;;2.92;2.20;;;;;;;;;;8394333;28;20035;-58
2022/08/14 10:48:56;;;;;;;6.13;2.10;;;;;;;;;;8393306;28;20040;-58
2022/08/14 10:52:58;;;;;;;2.42;2.22;;;;;;;;;;8392123;28;20546;-58
2022/08/14 10:57:10;;;;;;;3.45;2.60;;;;;;;;;;8390481;28;20028;-58
2022/08/14 11:01:11;;;;;;;3.38;2.10;;;;;;;;;;8389326;28;20504;-58
2022/08/14 11:05:13;;;;;;;2.47;2.10;;;;;;;;;;8390806;28;20081;-58
2022/08/14 11:09:13;;;;;;;;;;;;;;;;;;8388278;28;20020;-59
2022/08/14 11:13:18;;;;;;;2.20;2.00;;;;;;;;;;8391486;28;19917;-58
2022/08/14 11:17:24;;;;;;;2.17;2.00;;;;;;;;;;8391661;28;20044;-59
2022/08/14 11:21:28;;;;;;;2.90;2.20;;;;;;;;;;8389673;28;20041;-59
2022/08/14 11:25:30;;;;;;;3.65;2.25;;;;;;;;;;8387728;28;20032;-58
2022/08/14 11:29:30;;;;;;;3.38;2.25;;;;;;;;;;8378875;28;20545;-59
2022/08/14 11:33:33;;;;;;;3.60;2.20;;;;;;;;;;8379930;28;20409;-58
2022/08/14 11:37:33;;;;;;;2.63;2.30;;;;;;;;;;8384616;28;20036;-58
2022/08/14 11:41:34;;;;;;;2.85;2.53;;;;;;;;;;8384297;28;20137;-59
2022/08/14 11:45:35;;;;;;;2.97;2.30;;;;;;;;;;8378379;28;20055;-59
2022/08/14 11:49:36;;;;;;;3.17;2.42;;;;;;;;;;8379412;28;20510;-59
2022/08/14 11:53:37;;;;;;;2.92;2.20;;;;;;;;;;8375514;28;20485;-59
2022/08/14 11:57:38;;;;;;;3.30;2.40;;;;;;;;;;8368430;28;20732;-59
2022/08/14 12:01:38;;;;;;;3.40;2.50;;;;;;;;;;8368008;28;20044;-59
2022/08/14 12:05:41;;;;;;;2.95;2.70;;;;;;;;;;8371944;28;20440;-58
2022/08/14 12:09:42;;;;;;;2.80;2.60;;;;;;;;;;8368932;28;20063;-58
2022/08/14 12:13:43;;;;;;;2.85;2.65;;;;;;;;;;8367839;28;20055;-59
2022/08/14 12:17:47;;;;;;;3.35;2.40;;;;;;;;;;8364895;28;20146;-59
2022/08/14 12:21:50;;;;;;;3.38;2.50;;;;;;;;;;8366333;28;20031;-59
2022/08/14 12:26:03;;;;;;;3.33;2.70;;;;;;;;;;8369115;28;20403;-60
2022/08/14 12:30:05;;;;;;;6.05;2.80;;;;;;;;;;8364082;28;20024;-59
2022/08/14 12:34:10;;;;;;;2.50;2.40;;;;;;;;;;8364085;28;20230;-60
2022/08/14 12:38:11;;;;;;;2.78;2.58;;;;;;;;;;8364669;28;20055;-59
2022/08/14 12:42:11;;;;;;;5.17;2.20;;;;;;;;;;8364950;28;20485;-59
2022/08/14 12:46:20;;;;;;;4.28;2.40;;;;;;;;;;8365503;28;20141;-59
2022/08/14 12:50:21;;;;;;;3.35;2.40;;;;;;;;;;8368323;28;20017;-59
2022/08/14 12:54:21;;;;;;;3.73;2.33;;;;;;;;;;8369904;28;20031;-59
2022/08/14 12:58:27;;;;;;;5.03;2.33;;;;;;;;;;8370957;28;20047;-59
2022/08/14 13:02:28;;;;;;;3.58;2.58;;;;;;;;;;8368329;28;20056;-59
2022/08/14 13:06:29;;;;;;;2.55;2.35;;;;;;;;;;8366777;28;20017;-59
2022/08/14 13:10:33;;;;;;;2.37;2.17;;;;;;;;;;8365849;28;20477;-59
2022/08/14 13:14:33;;;;;;;3.75;2.40;;;;;;;;;;8367342;28;20102;-59
2022/08/14 13:18:36;;;;;;;2.20;2.10;;;;;;;;;;8364063;28;20143;-59
2022/08/14 13:22:40;;;;;;;2.78;2.30;;;;;;;;;;8363980;28;20370;-60
2022/08/14 13:26:43;;;;;;;2.15;2.03;;;;;;;;;;8365704;28;20380;-59
2022/08/14 13:30:44;;;;;;;2.05;1.95;;;;;;;;;;8374006;28;20029;-59
2022/08/14 13:34:47;;;;;;;2.20;2.00;;;;;;;;;;8376165;28;20154;-59
2022/08/14 13:38:49;;;;;;;2.53;2.05;;;;;;;;;;8376531;28;20559;-59
2022/08/14 13:42:51;;;;;;;3.25;1.90;;;;;;;;;;8373964;28;20024;-59
2022/08/14 13:46:51;;;;;;;2.03;1.83;;;;;;;;;;8378812;28;20036;-60
2022/08/14 13:50:54;;;;;;;3.17;1.80;;;;;;;;;;8375951;28;20025;-59
2022/08/14 13:54:57;;;;;;;2.50;1.83;;;;;;;;;;8379074;28;20115;-61
2022/08/14 13:58:57;;;;;;;2.35;2.00;;;;;;;;;;8373799;28;20472;-59
2022/08/14 14:02:58;;;;;;;3.63;2.03;;;;;;;;;;8372318;28;20032;-59
2022/08/14 14:07:03;;;;;;;2.97;2.07;;;;;;;;;;8373822;28;20025;-60
2022/08/14 14:11:03;;;;;;;5.40;2.08;;;;;;;;;;8373090;28;20541;-59
2022/08/14 14:15:05;;;;;;;1.90;1.80;;;;;;;;;;8373899;28;20494;-60
2022/08/14 14:19:06;;;;;;;2.17;2.03;;;;;;;;;;8377257;28;20046;-59
2022/08/14 14:23:09;;;;;;;3.33;2.67;;;;;;;;;;8375555;28;20073;-59
2022/08/14 14:27:09;;;;;;;3.08;1.80;;;;;;;;;;8377716;28;20085;-59
2022/08/14 14:31:10;;;;;;;2.10;1.70;;;;;;;;;;8376511;28;20028;-59
2022/08/14 14:35:14;;;;;;;3.57;1.70;;;;;;;;;;8369708;28;20111;-59
2022/08/14 14:39:15;;;;;;;2.33;2.00;;;;;;;;;;8371970;28;20270;-59
2022/08/14 14:43:16;;;;;;;3.30;1.63;;;;;;;;;;8368493;28;20024;-59
2022/08/14 14:47:20;;;;;;;2.73;1.80;;;;;;;;;;8371884;28;20041;-59
2022/08/14 14:51:20;;;;;;;5.55;1.80;;;;;;;;;;8369470;28;20021;-59
2022/08/14 14:55:21;;;;;;;2.43;1.70;;;;;;;;;;8368147;28;20313;-59
2022/08/14 14:59:21;;;;;;;1.70;1.60;;;;;;;;;;8368156;28;20525;-59
2022/08/14 15:03:22;;;;;;;5.60;1.83;;;;;;;;;;8368948;28;20489;-59
2022/08/14 15:07:22;;;;;;;6.87;2.00;;;;;;;;;;8371497;28;20518;-59
2022/08/14 15:11:22;;;;;;;1.92;1.55;;;;;;;;;;8374080;28;20410;-59
2022/08/14 15:15:22;;;;;;;1.95;1.83;;;;;;;;;;8371648;28;20025;-60
2022/08/14 15:19:22;;;;;;;1.80;1.70;;;;;;;;;;8371452;28;20029;-59
2022/08/14 15:23:23;;;;;;;2.17;1.65;;;;;;;;;;8372828;28;20027;-60
2022/08/14 15:27:24;;;;;;;2.00;1.90;;;;;;;;;;8369823;28;20032;-59
2022/08/14 15:31:25;;;;;;;3.55;1.70;;;;;;;;;;8370335;28;20120;-59
2022/08/14 15:35:26;;;;;;;2.03;1.83;;;;;;;;;;8372968;28;20387;-60
2022/08/14 15:39:28;;;;;;;3.28;1.80;;;;;;;;;;8375801;28;20028;-59
2022/08/14 15:43:29;;;;;;;1.88;1.65;;;;;;;;;;8372466;28;20418;-59
2022/08/14 15:47:30;;;;;;;2.20;2.00;;;;;;;;;;8371347;28;20500;-59
2022/08/14 15:51:30;;;;;;;1.90;1.80;;;;;;;;;;8376346;28;20054;-59
2022/08/14 15:55:31;;;;;;;1.60;1.50;;;;;;;;;;8375518;28;20154;-59
2022/08/14 16:01:18;;;;;;;2.73;1.70;;;;;;;;;;8370338;28;20282;-59
2022/08/14 16:03:52;;;;;;;2.65;1.70;;;;;;;;;;8371153;28;20817;-59
2022/08/14 16:07:54;;;;;;;1.70;1.60;;;;;;;;;;8377900;28;20020;-60
2022/08/14 16:11:54;;;;;;;4.63;1.80;;;;;;;;;;8376463;28;20023;-59
2022/08/14 16:15:54;;;;;;;1.63;1.52;;;;;;;;;;8378567;28;20055;-59
2022/08/14 16:19:54;;;;;;;3.03;1.80;;;;;;;;;;8374634;28;20457;-59
2022/08/14 16:23:55;;;;;;;1.53;1.43;;;;;;;;;;8375573;28;20199;-59
2022/08/14 16:27:57;;;;;;;2.38;1.70;;;;;;;;;;8371232;28;20505;-59
2022/08/14 16:31:58;;;;;;;1.35;1.33;;;;;;;;;;8373537;28;20090;-59
2022/08/14 16:36:00;;;;;;;1.70;1.60;;;;;;;;;;8373892;28;20039;-59
2022/08/14 16:40:01;;;;;;;2.08;1.50;;;;;;;;;;8377914;28;20051;-59
2022/08/14 16:44:03;;;;;;;2.27;1.70;;;;;;;;;;8374410;28;20021;-59
2022/08/14 16:48:03;;;;;;;2.50;1.60;;;;;;;;;;8371738;28;20500;-58
2022/08/14 16:52:05;;;;;;;1.50;1.40;;;;;;;;;;8372691;28;20019;-59
2022/08/14 16:56:13;;;;;;;3.42;1.65;;;;;;;;;;8371676;28;20032;-58
2022/08/14 17:00:31;;;;;;;1.60;1.50;;;;;;;;;;8367827;28;20564;-59
2022/08/14 17:04:33;;;;;;;1.42;1.33;;;;;;;;;;8368429;28;20024;-59
2022/08/14 17:08:33;;;;;;;1.50;1.40;;;;;;;;;;8369814;28;20032;-59
2022/08/14 17:12:34;;;;;;;1.65;1.55;;;;;;;;;;8368712;28;20068;-59
2022/08/14 17:16:35;;;;;;;2.15;1.52;;;;;;;;;;8369546;28;20161;-59
2022/08/14 17:20:35;;;;;;;5.75;1.67;;;;;;;;;;8372387;28;20492;-58
2022/08/14 17:24:36;;;;;;;1.93;1.50;;;;;;;;;;8371749;28;20463;-59
2022/08/14 17:28:36;;;;;;;5.97;1.40;;;;;;;;;;8368589;28;20539;-59
2022/08/14 17:32:37;;;;;;;2.53;1.40;;;;;;;;;;8370404;28;20271;-59
2022/08/14 17:36:41;;;;;;;6.35;1.60;;;;;;;;;;8377298;28;20020;-58
2022/08/14 17:40:41;;;;;;;1.42;1.33;;;;;;;;;;8378942;28;20028;-58
2022/08/14 17:44:41;;;;;;;1.63;1.50;;;;;;;;;;8380360;28;20174;-58
2022/08/14 17:48:42;;;;;;;3.90;1.60;;;;;;;;;;8376653;28;20039;-58
2022/08/14 17:52:42;;;;;;;2.72;1.60;;;;;;;;;;8375290;28;20035;-58
2022/08/14 17:56:44;;;;;;;1.50;1.40;;;;;;;;;;8373517;28;20595;-60
2022/08/14 18:00:45;;;;;;;2.30;1.40;;;;;;;;;;8374890;28;20036;-57
2022/08/14 18:04:46;;;;;;;1.58;1.48;;;;;;;;;;8375665;28;20127;-58
2022/08/14 18:08:47;;;;;;;2.22;1.27;;;;;;;;;;8376775;28;20060;-58
2022/08/14 18:12:47;;;;;;;1.50;1.40;;;;;;;;;;8371811;28;20059;-58
2022/08/14 18:16:49;;;;;;;1.48;1.38;;;;;;;;;;8374791;28;20040;-58
2022/08/14 18:20:53;;;;;;;2.73;1.40;;;;;;;;;;8376844;28;20047;-58
2022/08/14 18:24:53;;;;;;;1.75;1.50;;;;;;;;;;8379723;28;20111;-58
2022/08/14 18:28:54;;;;;;;1.58;1.48;;;;;;;;;;8379216;28;20025;-58
2022/08/14 18:32:55;;;;;;;2.00;1.50;;;;;;;;;;8377351;28;20151;-58
2022/08/14 18:36:55;;;;;;;2.65;1.50;;;;;;;;;;8374771;28;20052;-58
2022/08/14 18:41:16;;;;;;;5.72;2.03;;;;;;;;;;8374665;28;20040;-58
2022/08/14 18:45:17;;;;;;;6.57;1.60;;;;;;;;;;8371444;28;20029;-58
2022/08/14 18:49:18;;;;;;;5.20;1.70;;;;;;;;;;8377666;28;20024;-57
2022/08/14 18:53:18;;;;;;;4.28;1.50;;;;;;;;;;8378548;28;20035;-58
2022/08/14 18:57:18;;;;;;;3.38;1.60;;;;;;;;;;8379427;28;20032;-58
2022/08/14 19:01:28;;;;;;;6.95;1.80;;;;;;;;;;8377623;28;20032;-58
2022/08/14 19:05:40;;;;;;;3.03;1.40;;;;;;;;;;8378176;28;20870;-58
2022/08/14 19:09:49;;;;;;;3.03;1.70;;;;;;;;;;8374253;28;20139;-58
2022/08/14 19:13:49;;;;;;;4.78;1.70;;;;;;;;;;8370547;28;20094;-58
2022/08/14 19:17:50;;;;;;;1.70;1.50;;;;;;;;;;8373494;28;20515;-58
2022/08/14 19:21:55;;;;;;;2.65;1.67;;;;;;;;;;8368221;28;20074;-58
2022/08/14 19:25:59;;;;;;;2.65;1.65;;;;;;;;;;8371720;28;20047;-57
2022/08/14 19:30:11;;;;;;;1.50;1.40;;;;;;;;;;8373687;28;20024;-58
2022/08/14 19:34:12;;;;;;;2.03;1.70;;;;;;;;;;8371179;28;20040;-58
2022/08/14 19:38:33;;;;;;;1.77;1.55;;;;;;;;;;8369629;28;20301;-58
2022/08/14 19:42:35;;;;;;;2.63;1.70;;;;;;;;;;8351553;28;20036;-58
2022/08/14 19:46:39;;;;;;;3.75;1.70;;;;;;;;;;8369437;28;20040;-57
2022/08/14 19:50:39;;;;;;;1.58;1.45;;;;;;;;;;8368633;28;20741;-58
2022/08/14 19:54:40;;;;;;;2.78;1.80;;;;;;;;;;8369624;28;20528;-57
2022/08/14 19:58:41;;;;;;;3.10;1.85;;;;;;;;;;8369585;28;20038;-58
2022/08/14 20:02:49;;;;;;;2.92;1.60;;;;;;;;;;8367384;28;20718;-58
2022/08/14 20:06:49;;;;;;;2.88;1.52;;;;;;;;;;8369058;28;20029;-57
2022/08/14 20:10:50;;;;;;;3.83;1.55;;;;;;;;;;8369627;28;20031;-58
2022/08/14 20:14:50;;;;;;;4.20;1.70;;;;;;;;;;8369071;28;20555;-58
2022/08/14 20:18:50;;;;;;;1.83;1.60;;;;;;;;;;8368569;28;20040;-58
2022/08/14 20:22:50;;;;;;;3.20;1.70;;;;;;;;;;8369604;28;20650;-58
2022/08/14 20:27:09;;;;;;;4.28;1.70;;;;;;;;;;8368140;28;20270;-58
2022/08/14 20:31:11;;;;;;;4.90;1.50;;;;;;;;;;8367367;28;20442;-57
2022/08/14 20:35:24;;;;;;;3.17;1.40;;;;;;;;;;8366161;28;20027;-58
2022/08/14 20:39:25;;;;;;;1.55;1.45;;;;;;;;;;8365219;28;20025;-57
2022/08/14 20:47:53;;;;;;;2.83;1.50;;;;;;;;;;8366463;28;20044;-60
2022/08/14 20:51:58;;;;;;;3.33;1.70;;;;;;;;;;8371959;28;20023;-60
2022/08/14 20:55:59;;;;;;;6.97;1.70;;;;;;;;;;8373681;28;20027;-58
2022/08/14 20:59:59;;;;;;;4.32;1.50;;;;;;;;;;8364404;28;20054;-58
2022/08/14 21:04:01;;;;;;;11.43;1.85;;;;;;;;;;8371508;28;20029;-58
2022/08/14 21:08:02;;;;;;;3.10;1.60;;;;;;;;;;8369013;28;21031;-58
2022/08/14 21:12:03;;;;;;;4.72;1.52;;;;;;;;;;8366213;28;20020;-58
2022/08/14 21:16:04;;;;;;;6.70;1.63;;;;;;;;;;8371684;28;20033;-58
2022/08/14 21:20:07;;;;;;;2.88;1.30;;;;;;;;;;8373566;28;20028;-58
2022/08/14 21:24:08;;;;;;;5.18;1.58;;;;;;;;;;8370872;28;20032;-58
2022/08/14 21:28:09;;;;;;;1.50;1.40;;;;;;;;;;8373059;28;20050;-57
2022/08/14 21:32:10;;;;;;;2.20;1.50;;;;;;;;;;8370859;28;20090;-58
2022/08/14 21:36:10;;;;;;;4.43;1.50;;;;;;;;;;8371272;28;20055;-59
2022/08/14 21:40:18;;;;;;;3.17;1.55;;;;;;;;;;8370797;28;20039;-58
2022/08/14 21:44:19;;;;;;;4.10;1.77;;;;;;;;;;8371732;28;20028;-58
2022/08/14 21:48:20;;;;;;;4.93;1.58;;;;;;;;;;8375629;28;20139;-58
2022/08/14 21:52:20;;;;;;;4.65;1.80;;;;;;;;;;8374768;28;20012;-58
2022/08/14 21:56:21;;;;;;;4.93;1.70;;;;;;;;;;8377763;28;20036;-58
2022/08/14 22:00:22;;;;;;;5.60;1.92;;;;;;;;;;8381964;28;20020;-58
2022/08/14 22:04:23;;;;;;;5.20;1.80;;;;;;;;;;8378531;28;20032;-58
2022/08/14 22:08:24;;;;;;;7.00;1.88;;;;;;;;;;8384649;28;20036;-58
2022/08/14 22:12:24;;;;;;;5.30;2.22;;;;;;;;;;8383711;28;20094;-58
2022/08/14 22:16:25;;;;;;;11.55;2.20;;;;;;;;;;8382366;28;20041;-57
2022/08/14 22:20:29;;;;;;;9.40;2.20;;;;;;;;;;8381185;28;20037;-58
2022/08/14 22:24:29;;;;;;;5.78;2.15;;;;;;;;;;8383870;28;20161;-58
2022/08/14 22:28:30;;;;;;;4.50;1.90;;;;;;;;;;8379692;28;20029;-58
2022/08/14 22:32:32;;;;;;;5.22;2.10;;;;;;;;;;8380742;28;20036;-58
2022/08/14 22:36:47;;;;;;;6.90;1.95;;;;;;;;;;8380868;28;20025;-58
2022/08/14 22:40:48;;;;;;;4.90;2.08;;;;;;;;;;8376376;28;20058;-57
2022/08/14 22:44:49;;;;;;;5.18;1.92;;;;;;;;;;8379221;28;20504;-58
2022/08/14 22:48:50;;;;;;;4.22;1.85;;;;;;;;;;8378065;28;20076;-58
2022/08/14 22:52:50;;;;;;;6.38;1.70;;;;;;;;;;8382615;28;20111;-58
2022/08/14 22:56:56;;;;;;;4.78;2.00;;;;;;;;;;8379859;28;20483;-57
2022/08/14 23:00:59;;;;;;;2.20;2.00;;;;;;;;;;8377854;28;20041;-56
2022/08/14 23:05:02;;;;;;;5.20;1.67;;;;;;;;;;8379100;28;20031;-57
2022/08/14 23:09:03;;;;;;;4.13;1.73;;;;;;;;;;8380913;28;20036;-58
2022/08/14 23:13:06;;;;;;;3.50;1.70;;;;;;;;;;8377125;28;20056;-58
2022/08/14 23:17:06;;;;;;;3.30;1.77;;;;;;;;;;8375850;28;20889;-58
2022/08/14 23:21:11;;;;;;;4.72;1.67;;;;;;;;;;8376801;28;20025;-57
2022/08/14 23:25:12;;;;;;;2.47;1.60;;;;;;;;;;8376145;28;20762;-58
2022/08/14 23:29:15;;;;;;;3.03;1.70;;;;;;;;;;8375515;28;20025;-58
2022/08/14 23:33:17;;;;;;;3.93;1.80;;;;;;;;;;8373418;28;20043;-58
2022/08/14 23:37:18;;;;;;;2.47;1.50;;;;;;;;;;8374443;28;20048;-58
2022/08/14 23:41:18;;;;;;;3.38;1.73;;;;;;;;;;8374991;28;20219;-58
2022/08/14 23:45:19;;;;;;;2.50;1.77;;;;;;;;;;8373604;28;20040;-58
2022/08/14 23:49:20;;;;;;;5.35;1.70;;;;;;;;;;8376443;28;20169;-58
2022/08/14 23:53:28;;;;;;;4.00;1.58;;;;;;;;;;8373737;28;20090;-58
2022/08/14 23:57:28;;;;;;;3.20;1.80;;;;;;;;;;8376461;28;20035;-57
